Aviation Digital Data Service (ADDS)

Output produced by METARs form (0026 UTC 21 January 2019)
found at http://www.aviationweather.gov/metar/data/
 
Forecast for: YPXM (CHRISTMAS ISL (P, AU)
Text: TAF YPXM 202304Z 2100/2124 31007KT 9999 -SHRA BKN015
Forecast period: 0000 UTC 21 January 2019 to 0000 UTC 22 January 2019
Forecast type: FROM: standard forecast or significant change
Winds: from the NW (310 degrees) at 8 MPH (7 knots; 3.6 m/s)
Visibility: 6 or more miles 10+ km)
Ceiling: 1500 feet AGL
Clouds: broken clouds at 1500 feet AGL
Weather: -SHRA  (light rain showers)
Text: PROB30
Forecast period: 0000 UTC 21 January 2019 to 0000 UTC 22 January 2019
Forecast type: TEMPORARY: The following changes expected for less than half the time period
Winds: variable direction winds at 23 MPH (20 knots; 10.3 m/s)
gusting to 34 MPH (30 knots; 15.4 m/s)
Visibility: 1.86 miles (2.99 km)
Ceiling: 800 feet AGL
Clouds: broken clouds at 800 feet AGL
few clouds at 2000 feet AGL
Weather: TSRA  (rain associated with thunderstorm(s))